createdAt,value
2019-01-03T00:00:38.045Z,23.14
2019-01-03T00:03:04.773Z,23.15
2019-01-03T00:05:31.423Z,23.16
2019-01-03T00:07:58.062Z,23.24
2019-01-03T00:10:24.726Z,23.23
2019-01-03T00:12:51.380Z,23.21
2019-01-03T00:15:18.072Z,23.28
2019-01-03T00:17:44.725Z,23.25
2019-01-03T00:20:11.451Z,23.27
2019-01-03T00:22:38.111Z,23.25
2019-01-03T00:25:04.807Z,23.26
2019-01-03T00:27:31.464Z,23.26
2019-01-03T00:29:58.166Z,23.23
2019-01-03T00:32:24.929Z,23.24
2019-01-03T00:34:51.587Z,23.19
2019-01-03T00:37:18.312Z,23.23
2019-01-03T00:39:44.983Z,23.23
2019-01-03T00:42:11.660Z,23.27
2019-01-03T00:44:38.329Z,23.24
2019-01-03T00:47:04.984Z,23.22
2019-01-03T00:49:31.695Z,23.24
2019-01-03T00:51:58.410Z,23.27
2019-01-03T00:54:25.052Z,23.27
2019-01-03T00:56:51.721Z,23.27
2019-01-03T00:59:18.425Z,23.24
2019-01-03T01:01:45.075Z,23.24
2019-01-03T01:04:11.731Z,23.25
2019-01-03T01:06:38.387Z,23.27
2019-01-03T01:09:05.059Z,23.25
2019-01-03T01:11:31.765Z,23.26
2019-01-03T01:13:58.434Z,23.25
2019-01-03T01:16:25.084Z,23.27
2019-01-03T01:18:51.744Z,23.24
2019-01-03T01:21:18.444Z,23.27
2019-01-03T01:23:45.093Z,23.28
2019-01-03T01:26:11.790Z,23.22
2019-01-03T01:28:38.458Z,23.27
2019-01-03T01:31:05.107Z,23.24
2019-01-03T01:33:31.871Z,23.25
2019-01-03T01:35:58.533Z,23.22
2019-01-03T01:38:25.233Z,23.28
2019-01-03T01:40:51.890Z,23.28
2019-01-03T01:43:18.548Z,23.29
2019-01-03T01:45:45.199Z,23.30
2019-01-03T01:48:11.913Z,23.27
2019-01-03T01:50:38.582Z,23.29
2019-01-03T01:53:05.293Z,23.27
2019-01-03T01:55:31.966Z,23.26
2019-01-03T01:57:58.824Z,23.24
2019-01-03T02:00:25.450Z,23.14
2019-01-03T02:02:52.369Z,23.02
2019-01-03T02:05:19.305Z,23.11
2019-01-03T02:07:46.189Z,23.11
2019-01-03T02:10:12.908Z,23.09
2019-01-03T02:12:39.657Z,23.11
2019-01-03T02:15:06.300Z,23.13
2019-01-03T02:17:32.965Z,23.16
2019-01-03T02:19:59.677Z,23.21
2019-01-03T02:22:26.370Z,23.19
2019-01-03T02:24:53.033Z,23.21
2019-01-03T02:27:19.690Z,23.25
2019-01-03T02:29:46.344Z,23.27
2019-01-03T02:32:13.070Z,23.24
2019-01-03T02:34:39.758Z,23.25
2019-01-03T02:37:06.427Z,23.23
2019-01-03T02:39:33.087Z,23.20
2019-01-03T02:41:59.756Z,23.21
2019-01-03T02:44:26.418Z,23.20
2019-01-03T02:46:53.133Z,23.17
2019-01-03T02:49:19.827Z,23.17
2019-01-03T02:51:46.457Z,23.20
2019-01-03T02:54:13.174Z,23.14
2019-01-03T02:56:39.903Z,23.15
2019-01-03T02:59:06.558Z,23.14
2019-01-03T03:01:33.236Z,23.14
2019-01-03T03:03:59.896Z,23.14
2019-01-03T03:06:26.560Z,23.11
2019-01-03T03:08:53.291Z,23.13
2019-01-03T03:11:19.968Z,23.16
2019-01-03T03:13:46.680Z,23.14
2019-01-03T03:16:13.335Z,23.14
2019-01-03T03:18:40.053Z,23.13
2019-01-03T03:21:06.775Z,23.13
2019-01-03T03:23:33.428Z,23.10
2019-01-03T03:26:00.105Z,23.11
2019-01-03T03:28:26.838Z,23.10
2019-01-03T03:30:53.584Z,23.10
2019-01-03T03:33:20.233Z,23.11
2019-01-03T03:35:46.893Z,23.07
2019-01-03T03:38:16.427Z,23.09
2019-01-03T03:40:43.151Z,23.04
2019-01-03T03:43:09.803Z,22.94
2019-01-03T03:45:36.467Z,22.88
2019-01-03T03:48:03.133Z,22.93
2019-01-03T03:50:29.787Z,22.95
2019-01-03T03:52:56.440Z,22.98
2019-01-03T03:55:23.149Z,23.03
2019-01-03T03:57:49.807Z,23.03
2019-01-03T04:00:16.452Z,23.06
2019-01-03T04:02:43.126Z,23.08
2019-01-03T04:05:09.833Z,23.10
2019-01-03T04:07:36.495Z,23.13
2019-01-03T04:10:03.166Z,23.17
2019-01-03T04:12:29.833Z,22.51
2019-01-03T04:14:56.493Z,22.48
2019-01-03T04:17:23.576Z,22.34
2019-01-03T04:19:50.239Z,21.86
2019-01-03T04:22:16.897Z,21.72
2019-01-03T04:24:43.617Z,21.24
2019-01-03T04:27:10.262Z,21.15
2019-01-03T04:29:36.919Z,21.39
2019-01-03T04:32:03.599Z,21.52
2019-01-03T04:34:30.263Z,21.79
2019-01-03T04:36:56.937Z,21.95
2019-01-03T04:39:23.641Z,22.34
2019-01-03T04:41:50.283Z,22.48
2019-01-03T04:44:16.931Z,22.60
2019-01-03T04:46:43.697Z,22.76
2019-01-03T04:49:10.328Z,22.98
2019-01-03T04:51:36.985Z,23.02
2019-01-03T04:54:03.671Z,23.02
2019-01-03T04:56:30.322Z,23.04
2019-01-03T04:58:57.012Z,23.01
2019-01-03T05:01:23.751Z,23.02
2019-01-03T05:03:50.394Z,23.03
2019-01-03T05:06:17.049Z,23.08
2019-01-03T05:08:43.705Z,23.16
2019-01-03T05:11:10.382Z,23.11
2019-01-03T05:13:37.042Z,23.08
2019-01-03T05:16:03.708Z,23.10
2019-01-03T05:18:31.975Z,23.09
2019-01-03T05:20:57.038Z,23.10
2019-01-03T05:23:23.798Z,23.23
2019-01-03T05:25:50.486Z,23.02
2019-01-03T05:28:17.203Z,22.88
2019-01-03T05:30:43.855Z,22.91
2019-01-03T05:33:10.490Z,22.98
2019-01-03T05:35:37.211Z,22.94
2019-01-03T05:38:03.876Z,22.97
2019-01-03T05:40:30.697Z,23.07
2019-01-03T05:42:57.396Z,23.09
2019-01-03T05:45:24.050Z,23.10
2019-01-03T05:47:50.792Z,23.05
2019-01-03T05:50:17.436Z,23.13
2019-01-03T05:52:44.168Z,23.17
2019-01-03T05:55:10.840Z,23.16
2019-01-03T05:57:37.510Z,23.15
2019-01-03T06:00:04.158Z,23.18
2019-01-03T06:02:30.824Z,23.14
2019-01-03T06:04:57.583Z,23.15
2019-01-03T06:07:24.253Z,23.12
2019-01-03T06:09:50.917Z,23.12
2019-01-03T06:12:17.622Z,23.15
2019-01-03T06:14:44.293Z,23.24
2019-01-03T06:17:10.959Z,23.27
2019-01-03T06:19:37.626Z,23.29
2019-01-03T06:22:04.456Z,23.16
2019-01-03T06:24:31.135Z,23.22
2019-01-03T06:26:57.874Z,23.32
2019-01-03T06:29:24.621Z,23.24
2019-01-03T06:31:51.263Z,23.30
2019-01-03T06:34:17.978Z,23.26
2019-01-03T06:36:44.637Z,23.31
2019-01-03T06:39:11.307Z,23.28
2019-01-03T06:41:37.968Z,23.37
2019-01-03T06:44:04.645Z,23.65
2019-01-03T06:46:31.424Z,23.47
2019-01-03T06:48:58.088Z,23.42
2019-01-03T06:51:24.787Z,23.44
2019-01-03T06:53:51.445Z,23.55
2019-01-03T06:56:18.108Z,23.36
2019-01-03T06:58:44.811Z,23.41
2019-01-03T07:01:11.572Z,23.35
2019-01-03T07:03:38.247Z,23.29
2019-01-03T07:06:04.927Z,23.32
2019-01-03T07:08:31.619Z,23.30
2019-01-03T07:10:58.288Z,23.22
2019-01-03T07:13:24.988Z,23.16
2019-01-03T07:15:51.791Z,23.22
2019-01-03T07:18:18.461Z,23.29
2019-01-03T07:20:48.858Z,23.32
2019-01-03T07:23:15.534Z,23.37
2019-01-03T07:25:42.202Z,23.40
2019-01-03T07:28:09.015Z,23.49
2019-01-03T07:30:35.687Z,23.48
2019-01-03T07:33:02.350Z,23.46
2019-01-03T07:35:29.052Z,23.48
2019-01-03T07:37:55.718Z,23.50
2019-01-03T07:40:22.386Z,23.53
2019-01-03T07:42:50.074Z,23.50
2019-01-03T07:45:16.771Z,23.34
2019-01-03T07:47:43.427Z,22.98
2019-01-03T07:50:10.090Z,22.94
2019-01-03T07:52:36.744Z,22.94
2019-01-03T07:55:03.483Z,23.10
2019-01-03T07:57:30.164Z,23.16
2019-01-03T07:59:56.867Z,23.26
2019-01-03T08:02:23.530Z,23.26
2019-01-03T08:04:50.209Z,23.43
2019-01-03T08:07:16.955Z,23.40
2019-01-03T08:09:43.638Z,23.41
2019-01-03T08:12:11.467Z,23.53
2019-01-03T08:14:38.184Z,23.44
2019-01-03T08:17:04.844Z,23.44
2019-01-03T08:19:31.647Z,23.61
2019-01-03T08:21:58.387Z,23.56
2019-01-03T08:24:25.054Z,23.58
2019-01-03T08:26:54.122Z,23.66
2019-01-03T08:29:20.795Z,23.69
2019-01-03T08:31:47.458Z,23.49
2019-01-03T08:34:14.242Z,23.47
2019-01-03T08:36:40.875Z,23.46
2019-01-03T08:39:07.540Z,23.50
2019-01-03T08:41:34.215Z,23.54
2019-01-03T08:44:00.929Z,23.54
2019-01-03T08:46:27.684Z,23.57
2019-01-03T08:49:00.357Z,23.54
2019-01-03T08:51:21.149Z,23.50
2019-01-03T08:53:47.863Z,23.49
2019-01-03T08:56:14.590Z,23.53
2019-01-03T08:58:41.248Z,23.62
2019-01-03T09:01:07.981Z,23.56
2019-01-03T09:03:35.022Z,23.60
2019-01-03T09:06:01.760Z,23.63
2019-01-03T09:08:28.419Z,23.59
2019-01-03T09:10:55.094Z,23.63
2019-01-03T09:13:21.774Z,23.62
2019-01-03T09:15:48.465Z,23.62
2019-01-03T09:18:15.168Z,23.66
2019-01-03T09:20:41.995Z,23.72
2019-01-03T09:23:08.695Z,23.74
2019-01-03T09:25:35.367Z,23.72
2019-01-03T09:28:02.026Z,23.72
2019-01-03T09:30:28.731Z,23.70
2019-01-03T09:32:55.484Z,23.70
2019-01-03T09:35:22.141Z,23.82
2019-01-03T09:37:48.798Z,23.76
2019-01-03T09:40:15.460Z,23.90
2019-01-03T09:42:42.139Z,23.77
2019-01-03T09:45:08.826Z,23.74
2019-01-03T09:47:35.522Z,23.75
2019-01-03T09:50:02.191Z,23.77
2019-01-03T09:52:28.900Z,23.77
2019-01-03T09:54:55.584Z,23.85
2019-01-03T09:57:22.241Z,23.85
2019-01-03T09:59:48.964Z,23.84
2019-01-03T10:02:15.641Z,23.85
2019-01-03T10:04:42.325Z,23.88
2019-01-03T10:07:08.996Z,23.86
2019-01-03T10:09:35.674Z,23.83
2019-01-03T10:12:02.328Z,23.81
2019-01-03T10:14:29.237Z,23.81
2019-01-03T10:16:55.880Z,23.90
2019-01-03T10:19:22.559Z,24.02
2019-01-03T10:21:49.217Z,23.97
2019-01-03T10:24:15.958Z,23.91
2019-01-03T10:26:42.626Z,24.00
2019-01-03T10:29:09.344Z,23.96
2019-01-03T10:31:38.360Z,23.90
2019-01-03T10:34:05.103Z,24.18
2019-01-03T10:36:31.759Z,23.95
2019-01-03T10:38:58.507Z,24.11
2019-01-03T10:41:25.164Z,23.94
2019-01-03T10:43:51.831Z,23.97
2019-01-03T10:46:18.496Z,23.86
2019-01-03T10:48:45.155Z,23.82
2019-01-03T10:51:11.864Z,23.82
2019-01-03T10:53:38.531Z,23.81
2019-01-03T10:56:05.183Z,23.86
2019-01-03T10:58:31.853Z,23.86
2019-01-03T11:00:58.618Z,23.79
2019-01-03T11:03:25.288Z,23.91
2019-01-03T11:05:51.949Z,23.84
2019-01-03T11:08:18.611Z,23.85
2019-01-03T11:10:45.282Z,23.92
2019-01-03T11:13:11.955Z,23.85
2019-01-03T11:15:38.604Z,23.88
2019-01-03T11:18:05.971Z,23.84
2019-01-03T11:20:32.635Z,23.94
2019-01-03T11:22:59.367Z,23.87
2019-01-03T11:25:26.072Z,23.99
2019-01-03T11:27:52.749Z,23.96
2019-01-03T11:30:19.524Z,23.88
2019-01-03T11:32:46.207Z,24.00
2019-01-03T11:35:12.972Z,24.03
2019-01-03T11:37:39.633Z,23.98
2019-01-03T11:40:06.310Z,23.97
2019-01-03T11:42:32.982Z,23.93
2019-01-03T11:44:59.722Z,23.90
2019-01-03T11:47:26.480Z,24.04
2019-01-03T11:49:53.097Z,24.03
2019-01-03T11:52:19.767Z,24.00
2019-01-03T11:54:46.445Z,23.95
2019-01-03T11:57:13.212Z,24.00
2019-01-03T11:59:39.900Z,23.93
2019-01-03T12:02:06.579Z,23.98
2019-01-03T12:04:33.320Z,23.99
2019-01-03T12:06:59.988Z,23.97
2019-01-03T12:09:26.689Z,23.95
2019-01-03T12:11:53.476Z,23.96
2019-01-03T12:14:20.578Z,23.90
2019-01-03T12:16:47.320Z,23.99
2019-01-03T12:19:14.225Z,23.94
2019-01-03T12:21:45.443Z,23.95
2019-01-03T12:24:10.976Z,23.91
2019-01-03T12:26:37.617Z,23.94
2019-01-03T12:29:05.727Z,23.99
2019-01-03T12:31:32.386Z,23.91
2019-01-03T12:33:59.242Z,23.94
2019-01-03T12:36:25.886Z,23.85
2019-01-03T12:38:52.545Z,23.91
2019-01-03T12:41:19.215Z,24.05
2019-01-03T12:43:45.871Z,24.01
2019-01-03T12:46:12.568Z,24.00
2019-01-03T12:48:45.361Z,23.99
2019-01-03T12:51:06.861Z,24.01
2019-01-03T12:53:33.505Z,24.01
2019-01-03T12:56:00.246Z,23.96
2019-01-03T12:58:26.967Z,23.91
2019-01-03T13:00:53.698Z,23.98
2019-01-03T13:03:20.356Z,23.96
2019-01-03T13:05:47.010Z,23.94
2019-01-03T13:08:13.680Z,24.01
2019-01-03T13:10:40.472Z,23.90
2019-01-03T13:13:07.202Z,23.91
2019-01-03T13:15:33.846Z,23.99
2019-01-03T13:18:00.512Z,23.92
2019-01-03T13:20:27.164Z,24.02
2019-01-03T13:22:54.988Z,23.96
2019-01-03T13:25:21.725Z,23.99
2019-01-03T13:27:48.387Z,23.99
2019-01-03T13:30:15.080Z,23.97
2019-01-03T13:32:41.765Z,24.05
2019-01-03T13:35:08.437Z,24.01
2019-01-03T13:37:35.095Z,23.97
2019-01-03T13:40:01.805Z,24.17
2019-01-03T13:42:28.513Z,24.18
2019-01-03T13:44:55.167Z,24.13
2019-01-03T13:47:21.951Z,24.12
2019-01-03T13:49:48.610Z,24.04
2019-01-03T13:52:15.255Z,24.15
2019-01-03T13:54:42.482Z,24.18
2019-01-03T13:57:09.222Z,24.09
2019-01-03T13:59:35.873Z,24.10
2019-01-03T14:02:02.598Z,24.25
2019-01-03T14:04:29.335Z,24.10
2019-01-03T14:06:58.851Z,24.16
2019-01-03T14:09:25.551Z,24.01
2019-01-03T14:11:52.191Z,24.15
2019-01-03T14:14:18.992Z,24.20
2019-01-03T14:16:45.634Z,24.22
2019-01-03T14:19:12.401Z,24.11
2019-01-03T14:21:39.196Z,24.01
2019-01-03T14:24:05.886Z,23.97
2019-01-03T14:26:32.627Z,24.03
2019-01-03T14:28:59.442Z,24.04
2019-01-03T14:31:26.048Z,24.01
2019-01-03T14:33:52.746Z,23.91
2019-01-03T14:36:19.394Z,23.90
2019-01-03T14:38:46.156Z,23.89
2019-01-03T14:41:12.874Z,23.90
2019-01-03T14:43:39.536Z,23.89
2019-01-03T14:46:06.198Z,23.90
2019-01-03T14:48:32.858Z,24.04
2019-01-03T14:50:59.509Z,23.96
2019-01-03T14:53:26.160Z,23.88
2019-01-03T14:55:52.793Z,23.92
2019-01-03T14:58:19.452Z,23.85
2019-01-03T15:00:46.148Z,24.08
2019-01-03T15:03:12.811Z,23.95
2019-01-03T15:05:39.499Z,23.81
2019-01-03T15:08:06.152Z,23.76
2019-01-03T15:10:32.804Z,23.76
2019-01-03T15:12:59.499Z,23.74
2019-01-03T15:15:26.148Z,23.72
2019-01-03T15:17:52.881Z,23.73
2019-01-03T15:20:19.558Z,23.70
2019-01-03T15:22:46.322Z,23.67
2019-01-03T15:25:12.988Z,23.75
2019-01-03T15:27:39.626Z,23.69
2019-01-03T15:30:06.347Z,23.68
2019-01-03T15:32:32.983Z,23.68
2019-01-03T15:34:59.634Z,23.69
2019-01-03T15:37:26.275Z,23.59
2019-01-03T15:39:53.115Z,23.62
2019-01-03T15:42:19.818Z,23.70
2019-01-03T15:44:46.472Z,23.59
2019-01-03T15:47:13.165Z,23.44
2019-01-03T15:49:39.867Z,23.35
2019-01-03T15:52:06.583Z,23.40
2019-01-03T15:54:33.282Z,23.43
2019-01-03T15:57:00.360Z,23.57
2019-01-03T15:59:27.066Z,23.66
2019-01-03T16:01:53.772Z,23.85
2019-01-03T16:04:20.490Z,23.87
2019-01-03T16:06:47.147Z,23.77
2019-01-03T16:09:13.788Z,23.69
2019-01-03T16:11:40.427Z,23.68
2019-01-03T16:14:07.132Z,23.68
2019-01-03T16:16:33.775Z,23.63
2019-01-03T16:19:00.423Z,23.53
2019-01-03T16:21:27.116Z,23.21
2019-01-03T16:23:53.788Z,22.99
2019-01-03T16:26:21.680Z,22.88
2019-01-03T16:28:47.204Z,23.00
2019-01-03T16:31:13.852Z,23.21
2019-01-03T16:33:40.489Z,23.26
2019-01-03T16:36:08.675Z,23.26
2019-01-03T16:38:33.826Z,23.34
2019-01-03T16:41:00.505Z,23.35
2019-01-03T16:43:27.182Z,23.40
2019-01-03T16:45:53.863Z,23.48
2019-01-03T16:48:20.740Z,23.57
2019-01-03T16:50:47.387Z,23.61
2019-01-03T16:53:14.020Z,23.51
2019-01-03T16:55:40.689Z,23.44
2019-01-03T16:58:07.337Z,23.38
2019-01-03T17:00:34.035Z,23.39
2019-01-03T17:03:00.664Z,23.33
2019-01-03T17:05:27.351Z,23.31
2019-01-03T17:07:53.995Z,23.31
2019-01-03T17:10:20.687Z,23.26
2019-01-03T17:12:47.328Z,23.13
2019-01-03T17:15:13.976Z,23.13
2019-01-03T17:17:40.631Z,23.21
2019-01-03T17:20:07.269Z,23.21
2019-01-03T17:22:33.996Z,23.17
2019-01-03T17:25:00.668Z,23.20
2019-01-03T17:27:27.327Z,23.26
2019-01-03T17:29:54.020Z,23.26
2019-01-03T17:32:20.708Z,23.27
2019-01-03T17:34:47.350Z,23.27
2019-01-03T17:37:13.995Z,23.29
2019-01-03T17:39:40.639Z,23.25
2019-01-03T17:42:07.284Z,23.22
2019-01-03T17:44:33.949Z,23.19
2019-01-03T17:47:00.602Z,23.16
2019-01-03T17:49:27.379Z,23.14
2019-01-03T17:51:54.026Z,23.08
2019-01-03T17:54:20.725Z,23.12
2019-01-03T17:56:47.478Z,23.04
2019-01-03T17:59:14.120Z,22.85
2019-01-03T18:01:40.763Z,22.83
2019-01-03T18:04:07.413Z,22.99
2019-01-03T18:06:34.081Z,22.98
2019-01-03T18:09:00.722Z,22.99
2019-01-03T18:11:27.368Z,23.07
2019-01-03T18:13:54.023Z,23.07
2019-01-03T18:16:20.680Z,23.13
2019-01-03T18:18:47.317Z,23.12
2019-01-03T18:21:13.965Z,23.14
2019-01-03T18:23:40.625Z,23.14
2019-01-03T18:26:07.275Z,23.13
2019-01-03T18:28:33.967Z,23.10
2019-01-03T18:31:00.666Z,23.13
2019-01-03T18:33:27.314Z,23.14
2019-01-03T18:35:53.958Z,23.14
2019-01-03T18:38:20.601Z,23.15
2019-01-03T18:40:47.260Z,23.07
2019-01-03T18:43:13.919Z,22.93
2019-01-03T18:45:40.617Z,22.85
2019-01-03T18:48:07.203Z,22.89
2019-01-03T18:50:34.224Z,22.94
2019-01-03T18:53:00.517Z,22.96
2019-01-03T18:55:27.185Z,23.00
2019-01-03T18:57:53.821Z,23.06
2019-01-03T19:00:20.470Z,23.05
2019-01-03T19:02:47.121Z,23.06
2019-01-03T19:05:13.776Z,23.06
2019-01-03T19:07:40.442Z,23.18
2019-01-03T19:10:07.080Z,23.21
2019-01-03T19:12:33.732Z,23.15
2019-01-03T19:15:00.386Z,23.13
2019-01-03T19:17:27.037Z,23.10
2019-01-03T19:19:53.687Z,23.04
2019-01-03T19:22:20.337Z,23.01
2019-01-03T19:24:47.004Z,22.96
2019-01-03T19:27:13.655Z,22.80
2019-01-03T19:29:40.313Z,22.74
2019-01-03T19:32:06.975Z,22.86
2019-01-03T19:34:33.624Z,22.91
2019-01-03T19:37:03.409Z,22.90
2019-01-03T19:39:30.050Z,22.91
2019-01-03T19:41:56.783Z,22.95
2019-01-03T19:44:23.423Z,22.98
2019-01-03T19:46:50.073Z,22.99
2019-01-03T19:49:16.713Z,22.98
2019-01-03T19:51:43.399Z,23.03
2019-01-03T19:54:10.035Z,23.05
2019-01-03T19:56:36.678Z,23.02
2019-01-03T19:59:03.325Z,23.05
2019-01-03T20:01:29.980Z,23.00
2019-01-03T20:03:56.621Z,23.00
2019-01-03T20:06:23.276Z,22.98
2019-01-03T20:08:49.918Z,22.88
2019-01-03T20:11:16.574Z,22.75
2019-01-03T20:13:43.233Z,22.67
2019-01-03T20:16:09.873Z,22.79
2019-01-03T20:18:36.522Z,22.80
2019-01-03T20:21:03.171Z,22.83
2019-01-03T20:23:29.821Z,22.88
2019-01-03T20:25:56.468Z,22.91
2019-01-03T20:28:23.111Z,22.96
2019-01-03T20:30:49.746Z,22.96
2019-01-03T20:33:16.392Z,22.97
2019-01-03T20:35:43.037Z,22.90
2019-01-03T20:38:09.719Z,22.96
2019-01-03T20:40:36.361Z,22.96
2019-01-03T20:43:03.009Z,22.93
2019-01-03T20:45:29.664Z,22.93
2019-01-03T20:47:57.600Z,22.90
2019-01-03T20:50:22.970Z,22.88
2019-01-03T20:52:49.616Z,22.85
2019-01-03T20:55:16.265Z,22.75
2019-01-03T20:57:42.919Z,22.63
2019-01-03T21:00:09.565Z,22.77
2019-01-03T21:02:36.202Z,22.75
2019-01-03T21:05:02.851Z,22.79
2019-01-03T21:07:29.506Z,22.79
2019-01-03T21:09:56.150Z,22.82
2019-01-03T21:12:22.811Z,22.85
2019-01-03T21:14:49.456Z,22.87
2019-01-03T21:17:16.156Z,22.89
2019-01-03T21:19:42.801Z,22.90
2019-01-03T21:22:09.534Z,22.93
2019-01-03T21:24:36.177Z,22.92
2019-01-03T21:27:02.833Z,22.94
2019-01-03T21:29:29.489Z,22.91
2019-01-03T21:31:56.188Z,22.88
2019-01-03T21:34:22.829Z,22.87
2019-01-03T21:36:49.472Z,22.87
2019-01-03T21:39:16.127Z,22.71
2019-01-03T21:41:42.788Z,22.66
2019-01-03T21:44:09.434Z,22.70
2019-01-03T21:46:36.078Z,22.73
2019-01-03T21:49:02.780Z,22.72
2019-01-03T21:51:32.496Z,22.79
2019-01-03T21:53:59.163Z,22.81
2019-01-03T21:56:25.841Z,22.83
2019-01-03T21:58:52.479Z,22.85
2019-01-03T22:01:19.121Z,22.87
2019-01-03T22:03:45.776Z,22.87
2019-01-03T22:06:12.438Z,22.92
2019-01-03T22:08:39.134Z,22.89
2019-01-03T22:11:05.821Z,22.89
2019-01-03T22:13:32.469Z,22.89
2019-01-03T22:15:59.122Z,22.92
2019-01-03T22:18:25.831Z,22.85
2019-01-03T22:20:52.482Z,22.85
2019-01-03T22:23:19.225Z,22.74
2019-01-03T22:25:45.871Z,22.62
2019-01-03T22:28:12.531Z,22.65
2019-01-03T22:30:39.176Z,22.73
2019-01-03T22:33:05.810Z,22.68
2019-01-03T22:35:32.461Z,22.75
2019-01-03T22:37:59.118Z,22.71
2019-01-03T22:40:25.754Z,22.75
2019-01-03T22:42:52.397Z,22.79
2019-01-03T22:45:19.111Z,22.80
2019-01-03T22:47:45.759Z,22.83
2019-01-03T22:50:12.402Z,22.86
2019-01-03T22:52:39.047Z,22.84
2019-01-03T22:55:05.686Z,22.86
2019-01-03T22:57:32.383Z,22.89
2019-01-03T22:59:59.038Z,22.82
2019-01-03T23:02:25.690Z,22.84
2019-01-03T23:04:52.330Z,22.84
2019-01-03T23:07:18.991Z,22.81
2019-01-03T23:09:45.679Z,22.81
2019-01-03T23:12:12.330Z,22.81
2019-01-03T23:14:39.065Z,22.77
2019-01-03T23:17:05.710Z,22.62
2019-01-03T23:19:32.351Z,22.56
2019-01-03T23:21:58.997Z,22.63
2019-01-03T23:24:25.659Z,22.67
2019-01-03T23:26:52.296Z,22.68
2019-01-03T23:29:19.001Z,22.70
2019-01-03T23:31:45.593Z,22.72
2019-01-03T23:34:12.292Z,22.77
2019-01-03T23:36:38.925Z,22.77
2019-01-03T23:39:05.567Z,22.75
2019-01-03T23:41:32.248Z,22.79
2019-01-03T23:43:58.885Z,22.81
2019-01-03T23:46:25.545Z,22.79
2019-01-03T23:48:52.198Z,22.80
2019-01-03T23:51:18.839Z,22.86
2019-01-03T23:53:45.496Z,22.86
2019-01-03T23:56:12.195Z,22.87
2019-01-03T23:58:38.840Z,22.80
